sensor_id;sensor_type;location;lat;lon;timestamp;pressure;altitude;pressure_sealevel;temperature;humidity
73453;BME280;61687;56.232;43.854;2023-01-19T00:00:35;101874.06;;;-4.93;64.37
73453;BME280;61687;56.232;43.854;2023-01-19T00:03:05;101872.00;;;-4.91;63.77
73453;BME280;61687;56.232;43.854;2023-01-19T00:05:30;101867.44;;;-4.90;63.93
73453;BME280;61687;56.232;43.854;2023-01-19T00:07:58;101856.66;;;-4.83;62.77
73453;BME280;61687;56.232;43.854;2023-01-19T00:10:40;101857.25;;;-4.81;62.84
73453;BME280;61687;56.232;43.854;2023-01-19T00:13:06;101851.31;;;-4.83;62.56
73453;BME280;61687;56.232;43.854;2023-01-19T00:15:32;101857.50;;;-4.83;62.82
73453;BME280;61687;56.232;43.854;2023-01-19T00:17:58;101861.56;;;-4.80;62.45
73453;BME280;61687;56.232;43.854;2023-01-19T00:20:23;101860.31;;;-4.78;62.18
73453;BME280;61687;56.232;43.854;2023-01-19T00:22:49;101859.84;;;-4.75;61.32
73453;BME280;61687;56.232;43.854;2023-01-19T00:25:16;101851.38;;;-4.71;61.10
73453;BME280;61687;56.232;43.854;2023-01-19T00:27:42;101848.56;;;-4.77;60.95
73453;BME280;61687;56.232;43.854;2023-01-19T00:30:16;101844.84;;;-4.76;60.90
73453;BME280;61687;56.232;43.854;2023-01-19T00:32:42;101851.63;;;-4.73;60.56
73453;BME280;61687;56.232;43.854;2023-01-19T00:35:08;101841.50;;;-4.71;60.40
73453;BME280;61687;56.232;43.854;2023-01-19T00:37:34;101842.56;;;-4.72;60.03
73453;BME280;61687;56.232;43.854;2023-01-19T00:40:00;101845.81;;;-4.70;59.92
73453;BME280;61687;56.232;43.854;2023-01-19T00:42:26;101836.97;;;-4.70;59.25
73453;BME280;61687;56.232;43.854;2023-01-19T00:45:18;101849.06;;;-4.68;59.00
73453;BME280;61687;56.232;43.854;2023-01-19T00:47:45;101840.22;;;-4.68;58.99
73453;BME280;61687;56.232;43.854;2023-01-19T00:50:12;101833.03;;;-4.68;58.95
73453;BME280;61687;56.232;43.854;2023-01-19T00:52:39;101832.44;;;-4.70;58.62
73453;BME280;61687;56.232;43.854;2023-01-19T00:55:07;101820.13;;;-4.71;58.25
73453;BME280;61687;56.232;43.854;2023-01-19T00:57:33;101824.28;;;-4.75;58.37
73453;BME280;61687;56.232;43.854;2023-01-19T00:59:59;101823.25;;;-4.74;58.51
73453;BME280;61687;56.232;43.854;2023-01-19T01:02:26;101825.34;;;-4.76;58.60
73453;BME280;61687;56.232;43.854;2023-01-19T01:04:52;101822.41;;;-4.75;58.04
73453;BME280;61687;56.232;43.854;2023-01-19T01:07:20;101817.66;;;-4.72;57.51
73453;BME280;61687;56.232;43.854;2023-01-19T01:09:46;101818.94;;;-4.75;57.69
73453;BME280;61687;56.232;43.854;2023-01-19T01:12:12;101815.81;;;-4.72;57.48
73453;BME280;61687;56.232;43.854;2023-01-19T01:14:38;101809.88;;;-4.74;57.00
73453;BME280;61687;56.232;43.854;2023-01-19T01:17:04;101814.97;;;-4.72;57.08
73453;BME280;61687;56.232;43.854;2023-01-19T01:19:30;101818.25;;;-4.70;56.82
73453;BME280;61687;56.232;43.854;2023-01-19T01:21:56;101817.91;;;-4.74;56.52
73453;BME280;61687;56.232;43.854;2023-01-19T01:24:22;101824.28;;;-4.75;56.73
73453;BME280;61687;56.232;43.854;2023-01-19T01:26:48;101821.63;;;-4.75;56.71
73453;BME280;61687;56.232;43.854;2023-01-19T01:29:13;101826.97;;;-4.75;56.61
73453;BME280;61687;56.232;43.854;2023-01-19T01:31:39;101834.16;;;-4.76;56.03
73453;BME280;61687;56.232;43.854;2023-01-19T01:34:05;101827.75;;;-4.75;55.77
73453;BME280;61687;56.232;43.854;2023-01-19T01:36:31;101821.03;;;-4.77;56.32
73453;BME280;61687;56.232;43.854;2023-01-19T01:38:58;101822.03;;;-4.78;56.19
73453;BME280;61687;56.232;43.854;2023-01-19T01:41:25;101816.09;;;-4.80;55.68
73453;BME280;61687;56.232;43.854;2023-01-19T01:43:54;101821.91;;;-4.83;55.86
73453;BME280;61687;56.232;43.854;2023-01-19T01:46:23;101812.38;;;-4.79;56.06
73453;BME280;61687;56.232;43.854;2023-01-19T01:49:01;101819.16;;;-4.77;56.15
73453;BME280;61687;56.232;43.854;2023-01-19T01:51:42;101820.19;;;-4.78;55.63
73453;BME280;61687;56.232;43.854;2023-01-19T01:54:20;101818.47;;;-4.72;55.62
73453;BME280;61687;56.232;43.854;2023-01-19T01:56:49;101807.78;;;-4.72;55.43
73453;BME280;61687;56.232;43.854;2023-01-19T01:59:22;101807.31;;;-4.69;55.41
73453;BME280;61687;56.232;43.854;2023-01-19T02:02:00;101798.34;;;-4.75;55.44
73453;BME280;61687;56.232;43.854;2023-01-19T02:04:49;101811.97;;;-4.76;55.37
73453;BME280;61687;56.232;43.854;2023-01-19T02:07:26;101810.91;;;-4.75;55.41
73453;BME280;61687;56.232;43.854;2023-01-19T02:10:13;101810.75;;;-4.80;55.40
73453;BME280;61687;56.232;43.854;2023-01-19T02:12:58;101815.88;;;-4.79;55.11
73453;BME280;61687;56.232;43.854;2023-01-19T02:15:44;101806.38;;;-4.75;54.41
73453;BME280;61687;56.232;43.854;2023-01-19T02:18:10;101806.38;;;-4.75;54.93
73453;BME280;61687;56.232;43.854;2023-01-19T02:20:37;101802.66;;;-4.74;54.22
73453;BME280;61687;56.232;43.854;2023-01-19T02:23:19;101800.94;;;-4.68;54.20
73453;BME280;61687;56.232;43.854;2023-01-19T02:25:48;101808.28;;;-4.63;53.91
73453;BME280;61687;56.232;43.854;2023-01-19T02:28:14;101796.28;;;-4.61;53.42
73453;BME280;61687;56.232;43.854;2023-01-19T02:30:40;101796.66;;;-4.57;53.66
73453;BME280;61687;56.232;43.854;2023-01-19T02:33:06;101800.97;;;-4.56;53.89
73453;BME280;61687;56.232;43.854;2023-01-19T02:35:33;101799.22;;;-4.62;53.88
73453;BME280;61687;56.232;43.854;2023-01-19T02:38:02;101803.28;;;-4.60;53.81
73453;BME280;61687;56.232;43.854;2023-01-19T02:40:28;101799.56;;;-4.58;53.67
73453;BME280;61687;56.232;43.854;2023-01-19T02:42:57;101804.91;;;-4.58;53.37
73453;BME280;61687;56.232;43.854;2023-01-19T02:45:25;101800.13;;;-4.56;53.61
73453;BME280;61687;56.232;43.854;2023-01-19T02:47:52;101811.88;;;-4.57;53.79
73453;BME280;61687;56.232;43.854;2023-01-19T02:50:34;101806.09;;;-4.54;53.19
73453;BME280;61687;56.232;43.854;2023-01-19T02:55:38;101810.50;;;-4.60;53.38
73453;BME280;61687;56.232;43.854;2023-01-19T02:58:13;101814.56;;;-4.57;53.36
73453;BME280;61687;56.232;43.854;2023-01-19T03:00:59;101801.66;;;-4.61;53.18
73453;BME280;61687;56.232;43.854;2023-01-19T03:03:32;101808.28;;;-4.63;53.34
73453;BME280;61687;56.232;43.854;2023-01-19T03:06:07;101793.88;;;-4.62;53.19
73453;BME280;61687;56.232;43.854;2023-01-19T03:08:52;101798.38;;;-4.63;52.91
73453;BME280;61687;56.232;43.854;2023-01-19T03:11:19;101800.47;;;-4.65;53.38
73453;BME280;61687;56.232;43.854;2023-01-19T03:13:52;101792.44;;;-4.65;53.22
73453;BME280;61687;56.232;43.854;2023-01-19T03:19:01;101791.50;;;-4.70;53.52
73453;BME280;61687;56.232;43.854;2023-01-19T03:21:29;101797.53;;;-4.75;52.98
73453;BME280;61687;56.232;43.854;2023-01-19T03:24:01;101794.63;;;-4.74;53.12
73453;BME280;61687;56.232;43.854;2023-01-19T03:26:30;101798.94;;;-4.72;52.48
73453;BME280;61687;56.232;43.854;2023-01-19T03:28:59;101792.31;;;-4.70;52.33
73453;BME280;61687;56.232;43.854;2023-01-19T03:31:28;101790.09;;;-4.73;52.43
73453;BME280;61687;56.232;43.854;2023-01-19T03:34:01;101799.19;;;-4.74;52.14
73453;BME280;61687;56.232;43.854;2023-01-19T03:36:35;101798.94;;;-4.72;52.38
73453;BME280;61687;56.232;43.854;2023-01-19T03:39:03;101802.56;;;-4.67;52.01
73453;BME280;61687;56.232;43.854;2023-01-19T03:41:32;101806.28;;;-4.68;52.03
73453;BME280;61687;56.232;43.854;2023-01-19T03:43:59;101804.66;;;-4.69;52.13
73453;BME280;61687;56.232;43.854;2023-01-19T03:46:26;101799.88;;;-4.67;51.90
73453;BME280;61687;56.232;43.854;2023-01-19T03:48:53;101802.56;;;-4.67;51.51
73453;BME280;61687;56.232;43.854;2023-01-19T03:51:20;101805.22;;;-4.67;51.34
73453;BME280;61687;56.232;43.854;2023-01-19T03:53:46;101810.81;;;-4.68;51.22
73453;BME280;61687;56.232;43.854;2023-01-19T03:56:18;101801.97;;;-4.69;51.52
73453;BME280;61687;56.232;43.854;2023-01-19T03:58:45;101803.03;;;-4.70;51.38
73453;BME280;61687;56.232;43.854;2023-01-19T04:01:12;101806.75;;;-4.71;51.21
73453;BME280;61687;56.232;43.854;2023-01-19T04:03:40;101796.50;;;-4.74;51.12
73453;BME280;61687;56.232;43.854;2023-01-19T04:06:07;101792.63;;;-4.78;51.25
73453;BME280;61687;56.232;43.854;2023-01-19T04:08:34;101788.78;;;-4.82;51.43
73453;BME280;61687;56.232;43.854;2023-01-19T04:11:00;101796.13;;;-4.78;51.47
73453;BME280;61687;56.232;43.854;2023-01-19T04:13:26;101782.97;;;-4.79;51.20
73453;BME280;61687;56.232;43.854;2023-01-19T04:15:58;101789.38;;;-4.80;51.36
73453;BME280;61687;56.232;43.854;2023-01-19T04:18:27;101785.50;;;-4.84;50.23
73453;BME280;61687;56.232;43.854;2023-01-19T04:20:53;101786.94;;;-4.82;50.21
73453;BME280;61687;56.232;43.854;2023-01-19T04:23:19;101776.31;;;-4.89;51.03
73453;BME280;61687;56.232;43.854;2023-01-19T04:25:45;101786.44;;;-4.91;51.31
73453;BME280;61687;56.232;43.854;2023-01-19T04:28:11;101796.09;;;-4.90;50.99
73453;BME280;61687;56.232;43.854;2023-01-19T04:30:37;101788.66;;;-4.88;50.54
73453;BME280;61687;56.232;43.854;2023-01-19T04:33:03;101798.16;;;-4.92;51.04
73453;BME280;61687;56.232;43.854;2023-01-19T04:35:29;101798.75;;;-4.90;51.19
73453;BME280;61687;56.232;43.854;2023-01-19T04:37:55;101798.28;;;-4.86;51.12
73453;BME280;61687;56.232;43.854;2023-01-19T04:40:21;101800.75;;;-4.85;50.23
73453;BME280;61687;56.232;43.854;2023-01-19T04:42:47;101802.38;;;-4.84;49.80
73453;BME280;61687;56.232;43.854;2023-01-19T04:45:13;101801.09;;;-4.81;50.06
73453;BME280;61687;56.232;43.854;2023-01-19T04:47:39;101794.13;;;-4.82;50.41
73453;BME280;61687;56.232;43.854;2023-01-19T04:50:08;101789.09;;;-4.91;50.60
73453;BME280;61687;56.232;43.854;2023-01-19T04:52:34;101783.50;;;-4.89;50.89
73453;BME280;61687;56.232;43.854;2023-01-19T04:55:04;101779.38;;;-4.85;50.18
73453;BME280;61687;56.232;43.854;2023-01-19T04:57:31;101766.28;;;-4.93;50.39
73453;BME280;61687;56.232;43.854;2023-01-19T04:59:57;101779.06;;;-4.95;50.24
73453;BME280;61687;56.232;43.854;2023-01-19T05:02:23;101784.22;;;-4.94;50.54
73453;BME280;61687;56.232;43.854;2023-01-19T05:04:50;101786.31;;;-4.96;50.71
73453;BME280;61687;56.232;43.854;2023-01-19T05:07:16;101783.16;;;-4.93;49.86
73453;BME280;61687;56.232;43.854;2023-01-19T05:09:42;101781.53;;;-4.94;49.77
73453;BME280;61687;56.232;43.854;2023-01-19T05:12:08;101777.44;;;-4.96;50.02
73453;BME280;61687;56.232;43.854;2023-01-19T05:14:34;101794.31;;;-4.96;50.31
73453;BME280;61687;56.232;43.854;2023-01-19T05:16:59;101793.28;;;-4.95;50.20
73453;BME280;61687;56.232;43.854;2023-01-19T05:19:27;101792.81;;;-4.92;49.53
73453;BME280;61687;56.232;43.854;2023-01-19T05:21:54;101796.66;;;-4.88;48.96
73453;BME280;61687;56.232;43.854;2023-01-19T05:24:20;101789.22;;;-4.85;49.26
73453;BME280;61687;56.232;43.854;2023-01-19T05:26:45;101788.78;;;-4.82;48.86
73453;BME280;61687;56.232;43.854;2023-01-19T05:29:11;101784.00;;;-4.80;48.98
73453;BME280;61687;56.232;43.854;2023-01-19T05:31:38;101781.72;;;-4.77;48.90
73453;BME280;61687;56.232;43.854;2023-01-19T05:34:04;101789.06;;;-4.72;48.50
73453;BME280;61687;56.232;43.854;2023-01-19T05:36:30;101786.59;;;-4.74;48.32
73453;BME280;61687;56.232;43.854;2023-01-19T05:38:56;101774.06;;;-4.73;48.78
73453;BME280;61687;56.232;43.854;2023-01-19T05:41:22;101777.53;;;-4.72;48.86
73453;BME280;61687;56.232;43.854;2023-01-19T05:43:47;101786.50;;;-4.67;48.36
73453;BME280;61687;56.232;43.854;2023-01-19T05:46:13;101792.69;;;-4.66;48.31
73453;BME280;61687;56.232;43.854;2023-01-19T05:48:39;101789.31;;;-4.62;48.70
73453;BME280;61687;56.232;43.854;2023-01-19T05:51:05;101784.69;;;-4.54;48.55
73453;BME280;61687;56.232;43.854;2023-01-19T05:53:31;101791.13;;;-4.43;48.23
73453;BME280;61687;56.232;43.854;2023-01-19T05:56:04;101788.19;;;-4.42;47.85
73453;BME280;61687;56.232;43.854;2023-01-19T05:58:31;101781.50;;;-4.33;47.56
73453;BME280;61687;56.232;43.854;2023-01-19T06:01:04;101778.44;;;-4.36;48.16
73453;BME280;61687;56.232;43.854;2023-01-19T06:03:31;101782.66;;;-4.28;48.04
73453;BME280;61687;56.232;43.854;2023-01-19T06:05:59;101779.50;;;-4.25;47.90
73453;BME280;61687;56.232;43.854;2023-01-19T06:08:25;101785.91;;;-4.26;47.64
73453;BME280;61687;56.232;43.854;2023-01-19T06:10:51;101777.78;;;-4.20;48.09
73453;BME280;61687;56.232;43.854;2023-01-19T06:13:17;101776.63;;;-4.12;47.83
73453;BME280;61687;56.232;43.854;2023-01-19T06:15:43;101783.47;;;-4.04;47.32
73453;BME280;61687;56.232;43.854;2023-01-19T06:18:13;101774.66;;;-3.93;47.75
73453;BME280;61687;56.232;43.854;2023-01-19T06:20:42;101783.25;;;-3.79;47.22
73453;BME280;61687;56.232;43.854;2023-01-19T06:23:08;101785.72;;;-3.77;46.38
73453;BME280;61687;56.232;43.854;2023-01-19T06:25:35;101782.66;;;-3.69;45.89
73453;BME280;61687;56.232;43.854;2023-01-19T06:28:01;101785.22;;;-3.62;46.85
73453;BME280;61687;56.232;43.854;2023-01-19T06:30:27;101783.47;;;-3.56;46.98
73453;BME280;61687;56.232;43.854;2023-01-19T06:32:53;101782.06;;;-3.47;46.54
73453;BME280;61687;56.232;43.854;2023-01-19T06:35:19;101782.28;;;-3.37;47.00
73453;BME280;61687;56.232;43.854;2023-01-19T06:37:45;101785.88;;;-3.31;46.02
73453;BME280;61687;56.232;43.854;2023-01-19T06:40:11;101793.06;;;-3.20;45.17
73453;BME280;61687;56.232;43.854;2023-01-19T06:42:38;101800.16;;;-3.13;45.88
73453;BME280;61687;56.232;43.854;2023-01-19T06:45:05;101797.47;;;-3.13;45.33
73453;BME280;61687;56.232;43.854;2023-01-19T06:47:31;101813.94;;;-3.22;45.89
73453;BME280;61687;56.232;43.854;2023-01-19T06:49:58;101818.50;;;-3.34;45.76
73453;BME280;61687;56.232;43.854;2023-01-19T06:52:25;101818.19;;;-3.38;45.92
73453;BME280;61687;56.232;43.854;2023-01-19T06:54:51;101814.56;;;-3.43;46.44
73453;BME280;61687;56.232;43.854;2023-01-19T06:57:17;101811.53;;;-3.35;46.73
73453;BME280;61687;56.232;43.854;2023-01-19T06:59:43;101818.38;;;-3.27;45.99
73453;BME280;61687;56.232;43.854;2023-01-19T07:02:09;101825.50;;;-3.33;45.65
73453;BME280;61687;56.232;43.854;2023-01-19T07:04:44;101816.28;;;-3.25;45.76
73453;BME280;61687;56.232;43.854;2023-01-19T07:07:10;101820.38;;;-3.23;45.98
73453;BME280;61687;56.232;43.854;2023-01-19T07:09:36;101817.88;;;-3.12;46.11
73453;BME280;61687;56.232;43.854;2023-01-19T07:12:02;101814.31;;;-2.89;46.39
73453;BME280;61687;56.232;43.854;2023-01-19T07:14:28;101818.94;;;-2.72;46.18
73453;BME280;61687;56.232;43.854;2023-01-19T07:16:58;101824.00;;;-2.59;45.92
73453;BME280;61687;56.232;43.854;2023-01-19T07:19:24;101819.72;;;-2.43;45.30
73453;BME280;61687;56.232;43.854;2023-01-19T07:21:50;101812.81;;;-2.39;44.78
73453;BME280;61687;56.232;43.854;2023-01-19T07:24:15;101818.34;;;-2.28;44.96
73453;BME280;61687;56.232;43.854;2023-01-19T07:26:41;101813.16;;;-2.18;44.68
73453;BME280;61687;56.232;43.854;2023-01-19T07:29:07;101801.03;;;-2.21;44.59
73453;BME280;61687;56.232;43.854;2023-01-19T07:31:34;101807.13;;;-2.25;44.21
73453;BME280;61687;56.232;43.854;2023-01-19T07:34:00;101810.06;;;-2.27;44.46
73453;BME280;61687;56.232;43.854;2023-01-19T07:36:26;101802.81;;;-2.26;44.76
73453;BME280;61687;56.232;43.854;2023-01-19T07:38:52;101792.81;;;-2.31;44.19
73453;BME280;61687;56.232;43.854;2023-01-19T07:41:17;101795.38;;;-2.36;45.23
73453;BME280;61687;56.232;43.854;2023-01-19T07:43:43;101797.00;;;-2.35;45.08
73453;BME280;61687;56.232;43.854;2023-01-19T07:46:09;101796.56;;;-2.32;45.25
73453;BME280;61687;56.232;43.854;2023-01-19T07:48:35;101788.50;;;-2.32;45.39
73453;BME280;61687;56.232;43.854;2023-01-19T07:51:03;101778.81;;;-2.33;45.16
73453;BME280;61687;56.232;43.854;2023-01-19T07:53:30;101784.91;;;-2.38;45.18
73453;BME280;61687;56.232;43.854;2023-01-19T07:55:56;101784.84;;;-2.26;45.47
73453;BME280;61687;56.232;43.854;2023-01-19T07:58:23;101790.53;;;-2.22;45.47
73453;BME280;61687;56.232;43.854;2023-01-19T08:00:49;101794.44;;;-2.13;45.71
73453;BME280;61687;56.232;43.854;2023-01-19T08:03:15;101808.28;;;-2.04;45.25
73453;BME280;61687;56.232;43.854;2023-01-19T08:05:42;101789.47;;;-2.04;45.49
73453;BME280;61687;56.232;43.854;2023-01-19T08:08:08;101792.38;;;-2.06;45.65
73453;BME280;61687;56.232;43.854;2023-01-19T08:10:36;101784.03;;;-2.09;44.56
73453;BME280;61687;56.232;43.854;2023-01-19T08:13:01;101784.50;;;-2.12;44.81
73453;BME280;61687;56.232;43.854;2023-01-19T08:15:27;101794.66;;;-2.14;44.83
73453;BME280;61687;56.232;43.854;2023-01-19T08:17:58;101800.28;;;-2.16;45.52
73453;BME280;61687;56.232;43.854;2023-01-19T08:20:25;101799.72;;;-2.18;45.05
73453;BME280;61687;56.232;43.854;2023-01-19T08:22:51;101803.72;;;-2.21;45.35
73453;BME280;61687;56.232;43.854;2023-01-19T08:25:41;101812.09;;;-2.17;45.94
73453;BME280;61687;56.232;43.854;2023-01-19T08:28:09;101835.63;;;-2.07;45.83
73453;BME280;61687;56.232;43.854;2023-01-19T08:30:35;101834.78;;;-2.08;45.13
73453;BME280;61687;56.232;43.854;2023-01-19T08:33:01;101856.34;;;-2.20;45.29
73453;BME280;61687;56.232;43.854;2023-01-19T08:35:34;101866.63;;;-2.17;45.40
73453;BME280;61687;56.232;43.854;2023-01-19T08:38:02;101877.63;;;-2.18;44.87
73453;BME280;61687;56.232;43.854;2023-01-19T08:40:34;101871.25;;;-2.29;45.54
73453;BME280;61687;56.232;43.854;2023-01-19T08:43:02;101876.63;;;-2.29;46.12
73453;BME280;61687;56.232;43.854;2023-01-19T08:45:30;101882.06;;;-2.24;45.56
73453;BME280;61687;56.232;43.854;2023-01-19T08:47:56;101880.44;;;-2.25;45.61
73453;BME280;61687;56.232;43.854;2023-01-19T08:50:30;101888.84;;;-2.21;45.49
73453;BME280;61687;56.232;43.854;2023-01-19T08:53:01;101891.63;;;-2.16;45.52
73453;BME280;61687;56.232;43.854;2023-01-19T08:55:28;101882.50;;;-2.15;45.75
73453;BME280;61687;56.232;43.854;2023-01-19T08:57:55;101873.19;;;-2.24;46.39
73453;BME280;61687;56.232;43.854;2023-01-19T09:00:22;101848.72;;;-2.28;46.80
73453;BME280;61687;56.232;43.854;2023-01-19T09:02:50;101832.34;;;-2.26;47.46
73453;BME280;61687;56.232;43.854;2023-01-19T09:05:16;101815.44;;;-2.27;47.16
73453;BME280;61687;56.232;43.854;2023-01-19T09:07:43;101828.28;;;-2.29;47.14
73453;BME280;61687;56.232;43.854;2023-01-19T09:10:10;101836.41;;;-2.24;46.60
73453;BME280;61687;56.232;43.854;2023-01-19T09:12:36;101831.84;;;-2.23;47.16
73453;BME280;61687;56.232;43.854;2023-01-19T09:15:02;101818.03;;;-2.15;46.67
73453;BME280;61687;56.232;43.854;2023-01-19T09:17:28;101823.06;;;-2.19;47.07
73453;BME280;61687;56.232;43.854;2023-01-19T09:19:54;101820.97;;;-2.17;46.64
73453;BME280;61687;56.232;43.854;2023-01-19T09:22:20;101819.19;;;-2.11;46.88
73453;BME280;61687;56.232;43.854;2023-01-19T09:24:45;101824.06;;;-2.08;46.48
73453;BME280;61687;56.232;43.854;2023-01-19T09:27:11;101828.38;;;-2.07;46.48
73453;BME280;61687;56.232;43.854;2023-01-19T09:29:37;101821.13;;;-2.06;46.42
73453;BME280;61687;56.232;43.854;2023-01-19T09:32:04;101816.06;;;-2.03;46.52
73453;BME280;61687;56.232;43.854;2023-01-19T09:34:29;101815.03;;;-2.02;46.47
73453;BME280;61687;56.232;43.854;2023-01-19T09:36:56;101819.72;;;-1.92;46.30
73453;BME280;61687;56.232;43.854;2023-01-19T09:39:22;101817.84;;;-1.74;46.28
73453;BME280;61687;56.232;43.854;2023-01-19T09:41:55;101824.19;;;-1.63;46.14
73453;BME280;61687;56.232;43.854;2023-01-19T09:44:28;101831.75;;;-1.60;45.78
73453;BME280;61687;56.232;43.854;2023-01-19T09:46:56;101826.06;;;-1.64;45.77
73453;BME280;61687;56.232;43.854;2023-01-19T09:49:39;101830.13;;;-1.61;46.37
73453;BME280;61687;56.232;43.854;2023-01-19T09:52:10;101837.56;;;-1.68;46.11
73453;BME280;61687;56.232;43.854;2023-01-19T09:54:54;101844.88;;;-1.64;46.91
73453;BME280;61687;56.232;43.854;2023-01-19T09:57:22;101839.16;;;-1.50;46.62
73453;BME280;61687;56.232;43.854;2023-01-19T09:59:48;101854.94;;;-1.37;46.50
73453;BME280;61687;56.232;43.854;2023-01-19T10:02:45;101844.19;;;-1.37;45.88
73453;BME280;61687;56.232;43.854;2023-01-19T10:10:20;101858.69;;;-1.38;46.71
73453;BME280;61687;56.232;43.854;2023-01-19T10:18:28;101846.97;;;-1.49;46.72
73453;BME280;61687;56.232;43.854;2023-01-19T10:26:49;101838.53;;;-1.75;46.75
73453;BME280;61687;56.232;43.854;2023-01-19T10:29:34;101836.75;;;-1.69;47.47
73453;BME280;61687;56.232;43.854;2023-01-19T10:34:38;101833.63;;;-1.61;47.19
73453;BME280;61687;56.232;43.854;2023-01-19T10:37:59;101839.25;;;-1.62;47.20
73453;BME280;61687;56.232;43.854;2023-01-19T10:42:40;101848.94;;;-1.61;46.63
73453;BME280;61687;56.232;43.854;2023-01-19T10:45:17;101852.53;;;-1.55;46.80
73453;BME280;61687;56.232;43.854;2023-01-19T10:47:45;101846.09;;;-1.54;47.16
73453;BME280;61687;56.232;43.854;2023-01-19T10:50:29;101851.72;;;-1.56;46.83
73453;BME280;61687;56.232;43.854;2023-01-19T10:52:58;101849.03;;;-1.56;47.17
73453;BME280;61687;56.232;43.854;2023-01-19T10:55:38;101853.25;;;-1.60;47.43
73453;BME280;61687;56.232;43.854;2023-01-19T10:58:07;101853.03;;;-1.59;46.87
73453;BME280;61687;56.232;43.854;2023-01-19T11:00:50;101847.81;;;-1.65;46.89
73453;BME280;61687;56.232;43.854;2023-01-19T11:03:30;101842.13;;;-1.69;47.07
73453;BME280;61687;56.232;43.854;2023-01-19T11:06:19;101844.56;;;-1.67;47.79
73453;BME280;61687;56.232;43.854;2023-01-19T11:08:47;101844.06;;;-1.64;48.06
73453;BME280;61687;56.232;43.854;2023-01-19T11:11:16;101843.50;;;-1.66;47.58
73453;BME280;61687;56.232;43.854;2023-01-19T11:13:42;101842.13;;;-1.69;47.86
73453;BME280;61687;56.232;43.854;2023-01-19T11:16:25;101847.00;;;-1.66;48.09
73453;BME280;61687;56.232;43.854;2023-01-19T11:18:54;101848.72;;;-1.60;47.88
73453;BME280;61687;56.232;43.854;2023-01-19T11:21:25;101849.28;;;-1.58;47.57
73453;BME280;61687;56.232;43.854;2023-01-19T11:23:57;101847.25;;;-1.67;47.08
73453;BME280;61687;56.232;43.854;2023-01-19T11:26:41;101852.78;;;-1.74;47.79
73453;BME280;61687;56.232;43.854;2023-01-19T11:29:24;101847.75;;;-1.70;48.34
73453;BME280;61687;56.232;43.854;2023-01-19T11:31:51;101848.53;;;-1.70;48.26
73453;BME280;61687;56.232;43.854;2023-01-19T11:37:03;101851.81;;;-1.68;48.28
73453;BME280;61687;56.232;43.854;2023-01-19T11:39:31;101864.59;;;-1.75;48.37
73453;BME280;61687;56.232;43.854;2023-01-19T11:42:11;101860.53;;;-1.78;48.12
73453;BME280;61687;56.232;43.854;2023-01-19T11:47:42;101877.25;;;-1.76;49.04
73453;BME280;61687;56.232;43.854;2023-01-19T11:50:28;101883.66;;;-1.77;48.99
73453;BME280;61687;56.232;43.854;2023-01-19T11:52:59;101879.91;;;-1.76;49.69
73453;BME280;61687;56.232;43.854;2023-01-19T11:58:17;101889.69;;;-1.69;49.72
73453;BME280;61687;56.232;43.854;2023-01-19T12:03:44;101888.56;;;-1.74;50.18
73453;BME280;61687;56.232;43.854;2023-01-19T12:06:18;101888.72;;;-1.80;50.38
73453;BME280;61687;56.232;43.854;2023-01-19T12:08:51;101885.59;;;-1.72;51.46
73453;BME280;61687;56.232;43.854;2023-01-19T12:11:23;101862.31;;;-1.66;51.61
73453;BME280;61687;56.232;43.854;2023-01-19T12:13:51;101872.06;;;-1.60;52.40
73453;BME280;61687;56.232;43.854;2023-01-19T12:16:23;101875.34;;;-1.58;52.39
73453;BME280;61687;56.232;43.854;2023-01-19T12:19:15;101893.91;;;-1.56;52.34
73453;BME280;61687;56.232;43.854;2023-01-19T12:21:43;101896.38;;;-1.55;52.33
73453;BME280;61687;56.232;43.854;2023-01-19T12:24:15;101893.19;;;-1.52;51.74
73453;BME280;61687;56.232;43.854;2023-01-19T12:26:55;101892.13;;;-1.68;52.60
73453;BME280;61687;56.232;43.854;2023-01-19T12:29:25;101888.94;;;-1.82;53.32
73453;BME280;61687;56.232;43.854;2023-01-19T12:34:44;101890.00;;;-1.83;53.45
73453;BME280;61687;56.232;43.854;2023-01-19T12:39:54;101893.94;;;-1.74;53.68
73453;BME280;61687;56.232;43.854;2023-01-19T12:42:21;101902.00;;;-1.74;53.51
73453;BME280;61687;56.232;43.854;2023-01-19T12:44:48;101890.69;;;-1.76;53.46
73453;BME280;61687;56.232;43.854;2023-01-19T12:47:18;101891.41;;;-1.80;53.51
73453;BME280;61687;56.232;43.854;2023-01-19T12:49:51;101885.69;;;-1.84;53.69
73453;BME280;61687;56.232;43.854;2023-01-19T12:52:27;101887.81;;;-1.86;53.46
73453;BME280;61687;56.232;43.854;2023-01-19T12:59:58;101893.75;;;-1.84;53.30
73453;BME280;61687;56.232;43.854;2023-01-19T13:02:41;101887.56;;;-1.84;53.63
73453;BME280;61687;56.232;43.854;2023-01-19T13:14:33;101892.94;;;-1.84;53.81
73453;BME280;61687;56.232;43.854;2023-01-19T13:21:36;101892.22;;;-1.80;54.01
73453;BME280;61687;56.232;43.854;2023-01-19T13:24:20;101906.22;;;-1.78;54.18
73453;BME280;61687;56.232;43.854;2023-01-19T13:29:33;101895.31;;;-1.88;54.37
73453;BME280;61687;56.232;43.854;2023-01-19T13:32:11;101889.34;;;-1.90;54.57
73453;BME280;61687;56.232;43.854;2023-01-19T13:35:03;101889.44;;;-1.85;54.59
73453;BME280;61687;56.232;43.854;2023-01-19T13:37:39;101874.63;;;-1.88;54.37
73453;BME280;61687;56.232;43.854;2023-01-19T13:40:07;101876.81;;;-1.84;54.62
73453;BME280;61687;56.232;43.854;2023-01-19T13:42:40;101869.34;;;-1.82;54.67
73453;BME280;61687;56.232;43.854;2023-01-19T13:45:30;101865.75;;;-1.88;54.68
73453;BME280;61687;56.232;43.854;2023-01-19T13:48:00;101869.50;;;-1.89;55.03
73453;BME280;61687;56.232;43.854;2023-01-19T13:50:30;101874.53;;;-1.93;54.47
73453;BME280;61687;56.232;43.854;2023-01-19T13:52:57;101866.09;;;-2.02;54.82
73453;BME280;61687;56.232;43.854;2023-01-19T13:55:29;101878.69;;;-2.02;54.86
73453;BME280;61687;56.232;43.854;2023-01-19T13:57:55;101882.19;;;-2.02;54.69